Time;durP1;ratioP1;P1;durP2;ratioP2;P2;SDS_P1;SDS_P2;PMS_P1;PMS_P2;Temp;Humidity;BMP_temperature;BMP_pressure;BME280_temperature;BME280_humidity;BME280_pressure;Samples;Min_cycle;Max_cycle;Signal;HPM_P1;HPM_P2
2021/07/23 00:01:37;;;;;;;4.63;2.30;;;19.70;62.60;;;;;;5016071;28;20050;-47
2021/07/23 00:04:04;;;;;;;4.85;2.42;;;19.70;62.40;;;;;;5016692;28;20104;-44
2021/07/23 00:06:29;;;;;;;4.13;2.50;;;19.60;62.10;;;;;;5016007;28;20034;-44
2021/07/23 00:08:55;;;;;;;4.13;2.25;;;19.60;62.20;;;;;;5016639;28;20022;-46
2021/07/23 00:11:20;;;;;;;8.75;2.55;;;19.60;62.20;;;;;;5015779;28;20030;-47
2021/07/23 00:13:47;;;;;;;2.80;2.20;;;19.60;62.40;;;;;;5016445;28;20026;-44
2021/07/23 00:16:13;;;;;;;5.57;2.40;;;19.50;62.30;;;;;;5015634;28;20059;-46
2021/07/23 00:18:39;;;;;;;10.52;2.60;;;19.50;62.50;;;;;;5016433;28;20068;-48
2021/07/23 00:21:05;;;;;;;4.00;2.50;;;19.50;62.40;;;;;;5016163;28;20037;-43
2021/07/23 00:23:30;;;;;;;5.97;2.40;;;19.50;62.40;;;;;;5016241;28;20498;-46
2021/07/23 00:25:56;;;;;;;3.53;2.40;;;19.40;62.40;;;;;;5015909;28;20049;-45
2021/07/23 00:28:21;;;;;;;3.17;2.13;;;19.40;62.40;;;;;;5016010;28;20033;-48
2021/07/23 00:30:47;;;;;;;5.80;2.30;;;19.40;62.60;;;;;;5015968;28;20026;-44
2021/07/23 00:33:13;;;;;;;5.55;2.60;;;19.40;62.40;;;;;;5016154;28;20041;-44
2021/07/23 00:35:38;;;;;;;3.42;2.38;;;19.40;62.40;;;;;;5015693;28;20046;-45
2021/07/23 00:38:05;;;;;;;4.28;2.60;;;19.30;62.40;;;;;;5015923;28;20041;-46
2021/07/23 00:40:33;;;;;;;4.60;2.58;;;19.30;62.40;;;;;;5016104;28;20322;-44
2021/07/23 00:42:59;;;;;;;10.35;3.00;;;19.30;62.40;;;;;;5017592;28;20339;-47
2021/07/23 00:45:25;;;;;;;5.45;2.42;;;19.30;62.40;;;;;;5019734;28;20025;-43
2021/07/23 00:47:55;;;;;;;6.93;2.75;;;19.30;63.10;;;;;;5019724;28;20038;-44
2021/07/23 00:50:21;;;;;;;5.33;2.70;;;19.30;62.60;;;;;;5019990;28;20084;-47
2021/07/23 00:52:49;;;;;;;3.47;2.58;;;19.20;62.50;;;;;;5019693;28;20044;-45
2021/07/23 00:55:15;;;;;;;6.28;3.00;;;19.20;62.50;;;;;;5019884;28;20329;-44
2021/07/23 00:57:43;;;;;;;5.82;2.92;;;19.20;62.70;;;;;;5019779;28;20054;-47
2021/07/23 01:00:09;;;;;;;7.13;2.30;;;19.10;62.90;;;;;;5019435;28;20129;-45
2021/07/23 01:02:35;;;;;;;4.32;2.83;;;19.10;62.80;;;;;;5019296;28;20036;-46
2021/07/23 01:05:01;;;;;;;5.75;2.70;;;19.10;62.90;;;;;;5019654;28;20030;-45
2021/07/23 01:07:26;;;;;;;7.32;3.25;;;19.10;62.90;;;;;;5019391;28;20425;-47
2021/07/23 01:09:52;;;;;;;4.30;2.60;;;19.10;63.40;;;;;;5019630;28;20030;-48
2021/07/23 01:12:19;;;;;;;3.53;2.58;;;19.00;63.30;;;;;;5019120;28;20101;-46
2021/07/23 01:14:44;;;;;;;3.17;2.40;;;19.00;63.60;;;;;;5019203;28;20026;-46
2021/07/23 01:17:11;;;;;;;8.35;2.67;;;19.00;63.60;;;;;;5018959;28;20121;-46
2021/07/23 01:19:51;;;;;;;2.85;2.30;;;18.90;63.50;;;;;;5019257;28;20041;-44
2021/07/23 01:22:20;;;;;;;4.65;2.55;;;19.00;64.00;;;;;;5018820;28;20030;-45
2021/07/23 01:24:47;;;;;;;5.65;3.05;;;18.90;63.30;;;;;;5019391;28;20103;-46
2021/07/23 01:27:14;;;;;;;3.35;2.70;;;18.90;63.40;;;;;;5019086;28;20034;-44
2021/07/23 01:29:40;;;;;;;4.82;2.60;;;18.90;63.40;;;;;;5019212;28;20021;-44
2021/07/23 01:32:06;;;;;;;3.78;2.75;;;18.90;63.60;;;;;;5018640;28;20104;-48
2021/07/23 01:34:32;;;;;;;5.72;2.60;;;18.90;63.60;;;;;;5018574;28;20045;-43
2021/07/23 01:36:58;;;;;;;6.57;2.88;;;18.80;63.60;;;;;;5018700;28;20092;-44
2021/07/23 01:39:24;;;;;;;3.50;2.50;;;18.80;63.80;;;;;;5018812;28;20042;-44
2021/07/23 01:41:50;;;;;;;6.78;2.75;;;18.80;63.30;;;;;;5018793;28;20038;-44
2021/07/23 01:44:15;;;;;;;3.72;2.80;;;18.70;63.30;;;;;;5019168;28;20319;-46
2021/07/23 01:46:41;;;;;;;6.13;2.83;;;18.70;63.30;;;;;;5018740;28;20030;-44
2021/07/23 01:49:07;;;;;;;5.63;3.15;;;18.70;63.20;;;;;;5019073;28;20117;-44
2021/07/23 01:51:32;;;;;;;3.72;2.70;;;18.70;63.50;;;;;;5018412;28;20034;-45
2021/07/23 01:53:58;;;;;;;7.65;3.10;;;18.70;63.70;;;;;;5018632;28;20042;-45
2021/07/23 01:56:24;;;;;;;5.38;3.10;;;18.60;63.80;;;;;;5017138;28;20030;-47
2021/07/23 01:58:50;;;;;;;3.28;2.38;;;18.60;63.70;;;;;;5018878;28;20030;-45
2021/07/23 02:01:16;;;;;;;5.75;3.00;;;18.60;64.00;;;;;;5018078;28;20041;-45
2021/07/23 02:03:41;;;;;;;8.27;3.47;;;18.60;64.00;;;;;;5018779;28;20088;-44
2021/07/23 02:06:07;;;;;;;4.68;2.85;;;18.60;64.00;;;;;;5018047;28;20025;-44
2021/07/23 02:08:33;;;;;;;6.22;3.03;;;18.60;64.10;;;;;;5018638;28;20042;-45
2021/07/23 02:11:00;;;;;;;6.30;2.60;;;18.50;64.30;;;;;;5018189;28;20033;-43
2021/07/23 02:13:26;;;;;;;8.05;3.35;;;18.50;64.30;;;;;;5018379;28;20034;-46
2021/07/23 02:15:51;;;;;;;8.82;3.10;;;18.50;64.30;;;;;;5018341;28;20037;-45
2021/07/23 02:18:17;;;;;;;3.72;2.85;;;18.50;64.40;;;;;;5018110;28;20129;-46
2021/07/23 02:20:43;;;;;;;3.42;2.80;;;18.50;64.60;;;;;;5018349;28;20128;-47
2021/07/23 02:23:08;;;;;;;6.13;2.80;;;18.40;64.70;;;;;;5017741;28;20092;-44
2021/07/23 02:25:34;;;;;;;4.15;2.72;;;18.40;64.80;;;;;;5017937;28;20018;-47
2021/07/23 02:28:00;;;;;;;4.90;2.95;;;18.40;64.70;;;;;;5018059;28;20077;-45
2021/07/23 02:30:26;;;;;;;6.13;2.95;;;18.40;64.80;;;;;;5018170;28;20029;-44
2021/07/23 02:32:52;;;;;;;4.70;3.00;;;18.40;64.40;;;;;;5017487;28;20341;-44
2021/07/23 02:35:17;;;;;;;4.30;3.00;;;18.40;64.40;;;;;;5017415;28;20037;-47
2021/07/23 02:37:43;;;;;;;6.13;2.78;;;18.50;64.40;;;;;;5017676;28;20034;-48
2021/07/23 02:40:09;;;;;;;5.65;2.90;;;18.40;64.20;;;;;;5017947;28;20054;-46
2021/07/23 02:42:35;;;;;;;6.45;3.00;;;18.40;64.30;;;;;;5017482;28;20429;-45
2021/07/23 02:45:01;;;;;;;6.88;2.70;;;18.40;64.00;;;;;;5017649;28;20133;-45
2021/07/23 02:47:26;;;;;;;5.28;2.80;;;18.40;64.10;;;;;;5017657;28;20030;-44
2021/07/23 02:49:52;;;;;;;6.43;2.78;;;18.50;64.20;;;;;;5017786;28;20022;-46
2021/07/23 02:52:17;;;;;;;4.57;2.60;;;18.50;64.10;;;;;;5017320;28;20034;-44
2021/07/23 02:54:43;;;;;;;5.88;2.90;;;18.50;64.10;;;;;;5017236;28;20032;-44
2021/07/23 02:57:09;;;;;;;5.93;2.90;;;18.40;64.10;;;;;;5017264;28;20041;-48
2021/07/23 02:59:35;;;;;;;7.30;2.80;;;18.50;63.90;;;;;;5017293;28;20152;-44
2021/07/23 03:02:00;;;;;;;3.58;2.38;;;18.50;63.80;;;;;;5016949;28;20030;-45
2021/07/23 03:04:26;;;;;;;5.68;2.67;;;18.50;63.80;;;;;;5017217;28;20328;-47
2021/07/23 03:06:52;;;;;;;9.80;2.90;;;18.50;63.70;;;;;;5016574;28;20113;-49
2021/07/23 03:09:17;;;;;;;3.17;2.38;;;18.60;63.90;;;;;;5017649;28;20042;-46
2021/07/23 03:11:43;;;;;;;4.13;2.67;;;18.60;64.10;;;;;;5017170;28;20402;-46
2021/07/23 03:14:08;;;;;;;8.50;2.58;;;18.60;64.10;;;;;;5017405;28;20034;-45
2021/07/23 03:16:34;;;;;;;4.45;2.72;;;18.60;63.80;;;;;;5016973;28;20033;-46
2021/07/23 03:19:00;;;;;;;4.32;2.78;;;18.60;63.60;;;;;;5017439;28;20414;-44
2021/07/23 03:21:26;;;;;;;5.85;2.67;;;18.60;63.70;;;;;;5016497;28;20072;-47
2021/07/23 03:23:51;;;;;;;6.90;2.60;;;18.60;63.70;;;;;;5017002;28;20030;-44
2021/07/23 03:26:19;;;;;;;3.90;2.30;;;18.60;63.60;;;;;;5016969;28;20026;-45
2021/07/23 03:28:45;;;;;;;6.95;2.33;;;18.70;63.40;;;;;;5017219;28;20397;-46
2021/07/23 03:31:14;;;;;;;8.70;2.80;;;18.70;63.30;;;;;;5016683;28;20025;-45
2021/07/23 03:33:41;;;;;;;7.18;2.42;;;18.70;63.20;;;;;;5017110;28;20493;-44
2021/07/23 03:36:07;;;;;;;4.55;2.35;;;18.70;62.60;;;;;;5016277;28;20092;-46
2021/07/23 03:38:33;;;;;;;5.50;2.20;;;18.80;62.60;;;;;;5016906;28;20029;-46
2021/07/23 03:40:58;;;;;;;3.53;2.25;;;18.80;62.30;;;;;;5016522;28;20323;-44
2021/07/23 03:43:24;;;;;;;3.22;2.25;;;18.90;62.30;;;;;;5016608;28;20415;-47
2021/07/23 03:45:50;;;;;;;3.50;2.45;;;18.90;62.40;;;;;;5016788;28;20056;-44
2021/07/23 03:48:15;;;;;;;6.75;2.20;;;19.00;62.40;;;;;;5016516;28;20030;-46
2021/07/23 03:50:41;;;;;;;5.82;2.70;;;19.00;62.30;;;;;;5016611;28;20053;-44
2021/07/23 03:53:07;;;;;;;5.00;2.63;;;19.10;62.50;;;;;;5016568;28;20402;-47
2021/07/23 03:55:33;;;;;;;5.28;2.63;;;19.10;62.50;;;;;;5016263;28;20374;-46
2021/07/23 03:57:58;;;;;;;5.90;2.83;;;19.10;62.70;;;;;;5015876;28;20065;-48
2021/07/23 04:00:24;;;;;;;6.63;3.17;;;19.20;62.80;;;;;;5016184;28;20038;-44
2021/07/23 04:02:49;;;;;;;5.22;2.67;;;19.20;62.60;;;;;;5016275;28;20038;-44
2021/07/23 04:05:15;;;;;;;3.90;2.60;;;19.20;62.70;;;;;;5016075;28;20026;-45
2021/07/23 04:07:41;;;;;;;8.77;2.88;;;19.20;62.90;;;;;;5015999;28;20034;-47
2021/07/23 04:10:07;;;;;;;6.60;2.70;;;19.30;62.30;;;;;;5015996;28;20084;-46
2021/07/23 04:12:33;;;;;;;4.28;2.40;;;19.30;62.30;;;;;;5015694;28;20121;-48
2021/07/23 04:14:58;;;;;;;6.28;3.40;;;19.30;62.70;;;;;;5016035;28;20112;-45
2021/07/23 04:17:24;;;;;;;4.75;2.53;;;19.30;62.50;;;;;;5015987;28;20036;-44
2021/07/23 04:19:50;;;;;;;5.25;3.25;;;19.40;63.30;;;;;;5015907;28;20092;-45
2021/07/23 04:22:18;;;;;;;5.72;3.03;;;19.40;62.70;;;;;;5015365;28;20081;-45
2021/07/23 04:24:44;;;;;;;6.00;2.70;;;19.50;62.90;;;;;;5015367;28;20028;-46
2021/07/23 04:27:10;;;;;;;8.63;3.38;;;19.60;62.90;;;;;;5015269;28;20030;-45
2021/07/23 04:29:36;;;;;;;11.25;3.40;;;19.60;62.90;;;;;;5015780;28;20383;-44
2021/07/23 04:32:01;;;;;;;7.60;4.10;;;19.70;62.50;;;;;;5011580;28;20117;-44
2021/07/23 04:34:27;;;;;;;7.55;4.60;;;19.80;63.00;;;;;;5014972;28;20061;-45
2021/07/23 04:36:53;;;;;;;20.23;8.60;;;19.90;63.10;;;;;;5014905;28;20032;-46
2021/07/23 04:39:18;;;;;;;8.52;5.10;;;20.00;63.60;;;;;;5015581;28;20038;-46
2021/07/23 04:41:44;;;;;;;29.00;12.32;;;20.20;63.10;;;;;;5014921;28;20030;-48
2021/07/23 04:44:10;;;;;;;10.65;4.18;;;20.40;63.60;;;;;;5015860;28;20074;-46
2021/07/23 04:46:35;;;;;;;6.45;3.55;;;20.60;62.20;;;;;;5015018;28;20113;-44
2021/07/23 04:49:01;;;;;;;4.50;2.83;;;20.80;61.90;;;;;;5015686;28;20029;-43
2021/07/23 04:51:29;;;;;;;11.88;5.15;;;20.90;61.60;;;;;;5014923;28;20105;-48
2021/07/23 04:53:54;;;;;;;11.68;4.07;;;21.00;61.80;;;;;;5015734;28;20040;-44
2021/07/23 04:56:20;;;;;;;15.32;6.35;;;21.00;61.30;;;;;;5013833;28;20022;-46
2021/07/23 04:58:45;;;;;;;5.93;3.85;;;21.00;61.20;;;;;;5015838;28;20034;-45
2021/07/23 05:01:11;;;;;;;8.18;4.97;;;21.00;61.60;;;;;;5015017;28;20093;-48
2021/07/23 05:03:39;;;;;;;14.88;10.88;;;20.90;62.10;;;;;;5014817;28;20038;-45
2021/07/23 05:06:06;;;;;;;10.05;4.20;;;21.00;62.50;;;;;;5015184;28;20052;-45
2021/07/23 05:08:32;;;;;;;5.75;3.70;;;21.00;62.60;;;;;;5015409;28;20038;-48
2021/07/23 05:10:59;;;;;;;11.45;4.57;;;21.00;62.80;;;;;;5015248;28;20036;-44
2021/07/23 05:13:25;;;;;;;10.90;5.72;;;21.00;62.90;;;;;;5015264;28;20033;-46
2021/07/23 05:15:53;;;;;;;7.10;3.85;;;21.00;63.40;;;;;;5015380;28;20057;-46
2021/07/23 05:18:19;;;;;;;4.97;3.17;;;21.00;63.70;;;;;;5015453;28;20046;-47
2021/07/23 05:20:45;;;;;;;5.88;4.38;;;21.00;63.90;;;;;;5015282;28;20030;-44
2021/07/23 05:23:11;;;;;;;8.38;3.38;;;21.00;64.00;;;;;;5015086;28;20043;-45
2021/07/23 05:25:38;;;;;;;5.05;3.10;;;21.10;64.30;;;;;;5015159;28;20022;-47
2021/07/23 05:28:04;;;;;;;6.15;3.50;;;21.20;64.30;;;;;;5015401;28;20437;-46
2021/07/23 05:30:29;;;;;;;10.07;3.50;;;21.20;64.20;;;;;;5019112;28;20029;-45
2021/07/23 05:32:55;;;;;;;7.00;3.67;;;21.30;64.10;;;;;;5018944;28;20288;-48
2021/07/23 05:35:21;;;;;;;6.10;4.20;;;21.30;64.10;;;;;;5018257;28;20077;-45
2021/07/23 05:37:46;;;;;;;6.85;3.63;;;21.40;64.30;;;;;;5017746;28;20385;-46
2021/07/23 05:40:12;;;;;;;8.93;3.20;;;21.50;64.20;;;;;;5018852;28;20021;-45
2021/07/23 05:42:39;;;;;;;6.38;3.17;;;21.50;64.20;;;;;;5018352;28;20034;-46
2021/07/23 05:45:05;;;;;;;6.85;3.28;;;21.50;64.30;;;;;;5018253;28;20030;-44
2021/07/23 05:47:31;;;;;;;7.70;3.13;;;21.60;64.30;;;;;;5018103;28;20346;-44
2021/07/23 05:49:56;;;;;;;5.85;3.40;;;21.70;64.30;;;;;;5018241;28;20037;-47
2021/07/23 05:52:22;;;;;;;8.75;4.55;;;21.70;64.40;;;;;;5017894;28;20088;-45
2021/07/23 05:54:47;;;;;;;7.88;4.10;;;21.90;63.60;;;;;;5015002;28;20080;-49
2021/07/23 05:57:13;;;;;;;8.90;4.18;;;21.90;63.10;;;;;;5017625;28;20029;-45
2021/07/23 05:59:39;;;;;;;8.32;3.55;;;22.00;62.40;;;;;;5018125;28;20034;-47
2021/07/23 06:02:05;;;;;;;6.60;4.13;;;22.10;62.40;;;;;;5017540;28;20526;-45
2021/07/23 06:04:30;;;;;;;11.60;5.18;;;22.20;62.50;;;;;;5018083;28;20030;-45
2021/07/23 06:06:56;;;;;;;8.20;5.00;;;22.30;62.40;;;;;;5017985;28;20314;-45
2021/07/23 06:09:22;;;;;;;8.75;3.05;;;22.50;61.60;;;;;;5017089;28;20061;-46
2021/07/23 06:11:47;;;;;;;11.00;3.17;;;22.60;60.00;;;;;;5017795;28;20048;-46
2021/07/23 06:14:13;;;;;;;7.65;3.28;;;22.60;59.10;;;;;;5018038;28;20030;-46
2021/07/23 06:16:42;;;;;;;4.90;2.90;;;22.60;59.40;;;;;;5017647;28;20084;-44
2021/07/23 06:19:08;;;;;;;5.03;3.38;;;22.60;59.20;;;;;;5017969;28;20038;-46
2021/07/23 06:21:34;;;;;;;9.32;2.83;;;22.60;59.50;;;;;;5017355;28;20037;-47
2021/07/23 06:24:00;;;;;;;9.02;3.80;;;22.60;58.80;;;;;;5017886;28;20026;-46
2021/07/23 06:26:25;;;;;;;4.90;3.15;;;22.70;59.10;;;;;;5017204;28;20030;-43
2021/07/23 06:28:51;;;;;;;7.55;3.53;;;22.70;59.50;;;;;;5017508;28;20026;-45
2021/07/23 06:31:17;;;;;;;5.72;2.90;;;22.70;59.70;;;;;;5016803;28;20457;-45
2021/07/23 06:33:43;;;;;;;10.32;3.00;;;22.80;59.70;;;;;;5017275;28;20404;-44
2021/07/23 06:36:08;;;;;;;4.57;2.97;;;22.80;59.40;;;;;;5017074;28;20045;-45
2021/07/23 06:38:34;;;;;;;8.57;2.60;;;22.90;59.80;;;;;;5017802;28;20041;-44
2021/07/23 06:41:00;;;;;;;5.68;3.45;;;22.90;59.50;;;;;;5016069;28;20061;-47
2021/07/23 06:43:26;;;;;;;9.52;4.82;;;22.90;59.70;;;;;;5017312;28;20046;-46
2021/07/23 06:45:56;;;;;;;8.05;2.90;;;23.00;59.00;;;;;;5016900;28;20022;-47
2021/07/23 06:48:22;;;;;;;7.13;2.88;;;23.00;58.40;;;;;;5017472;28;20034;-46
2021/07/23 06:50:51;;;;;;;6.75;2.83;;;23.10;58.80;;;;;;5017372;28;20032;-44
2021/07/23 06:53:17;;;;;;;6.50;2.60;;;23.10;58.30;;;;;;5017409;28;20045;-47
2021/07/23 06:55:43;;;;;;;12.30;3.38;;;23.10;58.10;;;;;;5015538;28;20087;-47
2021/07/23 06:58:09;;;;;;;5.90;3.10;;;23.20;57.30;;;;;;5016001;28;20038;-49
2021/07/23 07:00:35;;;;;;;6.50;2.50;;;23.30;57.30;;;;;;5016850;28;20421;-44
2021/07/23 07:03:01;;;;;;;4.85;2.97;;;23.30;56.80;;;;;;5016704;28;20037;-46
2021/07/23 07:05:27;;;;;;;7.50;2.78;;;23.40;56.30;;;;;;5016610;28;20478;-47
2021/07/23 07:07:53;;;;;;;4.35;2.42;;;23.40;55.70;;;;;;5016938;28;20415;-44
2021/07/23 07:10:19;;;;;;;7.28;2.70;;;23.40;56.00;;;;;;5016235;28;20032;-44
2021/07/23 07:12:44;;;;;;;8.07;2.38;;;23.50;55.70;;;;;;5016954;28;20037;-46
2021/07/23 07:15:10;;;;;;;4.93;2.78;;;23.50;55.70;;;;;;5016292;28;20045;-44
2021/07/23 07:17:36;;;;;;;5.85;2.70;;;23.50;56.20;;;;;;5016793;28;20033;-45
2021/07/23 07:20:03;;;;;;;5.25;2.40;;;23.60;55.90;;;;;;5017177;28;20034;-45
2021/07/23 07:22:28;;;;;;;4.63;2.85;;;23.60;55.70;;;;;;5015999;28;20041;-44
2021/07/23 07:24:54;;;;;;;6.20;2.85;;;23.70;55.80;;;;;;5016443;28;20026;-46
2021/07/23 07:27:20;;;;;;;6.00;2.35;;;23.80;55.20;;;;;;5016699;28;20037;-47
2021/07/23 07:29:46;;;;;;;5.45;2.80;;;23.80;54.50;;;;;;5012161;28;20088;-46
2021/07/23 07:32:12;;;;;;;6.53;3.53;;;23.90;54.60;;;;;;5012967;28;20126;-47
2021/07/23 07:34:38;;;;;;;5.47;2.78;;;23.90;55.50;;;;;;5015345;28;20124;-44
2021/07/23 07:37:05;;;;;;;8.20;2.60;;;24.00;53.90;;;;;;5016223;28;20029;-49
2021/07/23 07:39:31;;;;;;;4.38;2.70;;;24.00;54.40;;;;;;5015821;28;20022;-46
2021/07/23 07:41:57;;;;;;;9.02;2.92;;;24.10;53.90;;;;;;5015641;28;20117;-44
2021/07/23 07:44:23;;;;;;;6.43;2.65;;;24.10;54.10;;;;;;5016465;28;20037;-46
2021/07/23 07:46:48;;;;;;;6.00;2.40;;;24.20;54.60;;;;;;5016170;28;20538;-46
2021/07/23 07:49:16;;;;;;;10.65;2.60;;;24.30;53.60;;;;;;5016163;28;20045;-47
2021/07/23 07:51:42;;;;;;;5.13;2.17;;;24.30;53.90;;;;;;5015645;28;20429;-48
2021/07/23 07:54:08;;;;;;;9.55;2.58;;;24.40;52.80;;;;;;5015333;28;20121;-47
2021/07/23 07:56:33;;;;;;;7.45;2.97;;;24.40;53.30;;;;;;5015611;28;20310;-46
2021/07/23 07:58:59;;;;;;;7.82;2.00;;;24.50;51.90;;;;;;5016199;28;20383;-45
2021/07/23 08:01:25;;;;;;;5.97;2.13;;;24.60;50.40;;;;;;5014586;28;20061;-47
2021/07/23 08:03:50;;;;;;;8.05;3.38;;;24.60;51.40;;;;;;5016068;28;20121;-44
2021/07/23 08:06:24;;;;;;;4.75;1.88;;;24.70;51.50;;;;;;5015051;28;20057;-47
2021/07/23 08:08:52;;;;;;;5.20;2.17;;;24.70;50.90;;;;;;5016124;28;20084;-44
2021/07/23 08:11:18;;;;;;;6.80;3.70;;;24.80;50.40;;;;;;5014681;28;20058;-46
2021/07/23 08:13:44;;;;;;;5.28;3.30;;;24.80;50.60;;;;;;5016291;28;20354;-49
2021/07/23 08:16:11;;;;;;;8.27;4.07;;;24.80;50.10;;;;;;5014921;28;20285;-44
2021/07/23 08:18:37;;;;;;;6.10;2.38;;;24.90;50.20;;;;;;5016141;28;20117;-48
2021/07/23 08:21:04;;;;;;;4.43;1.98;;;25.00;49.70;;;;;;5014818;28;20579;-43
2021/07/23 08:23:30;;;;;;;6.15;2.65;;;25.00;49.60;;;;;;5015898;28;20030;-44
2021/07/23 08:25:56;;;;;;;5.85;1.80;;;25.00;50.10;;;;;;5015145;28;20026;-47
2021/07/23 08:28:22;;;;;;;4.30;2.10;;;25.10;48.50;;;;;;5015664;28;20048;-46
2021/07/23 08:30:48;;;;;;;4.57;2.00;;;25.10;48.90;;;;;;5015156;28;20025;-47
2021/07/23 08:33:14;;;;;;;5.50;1.60;;;25.10;48.70;;;;;;5015614;28;20034;-49
2021/07/23 08:35:41;;;;;;;9.10;1.90;;;25.20;49.30;;;;;;5014943;28;20045;-45
2021/07/23 08:38:06;;;;;;;4.32;1.70;;;25.20;47.00;;;;;;5015596;28;20034;-48
2021/07/23 08:40:32;;;;;;;3.75;1.65;;;25.20;46.70;;;;;;5015710;28;20167;-46
2021/07/23 08:43:02;;;;;;;4.88;2.40;;;25.20;47.00;;;;;;5014532;28;20049;-47
2021/07/23 08:45:27;;;;;;;6.15;2.38;;;25.20;47.60;;;;;;5014863;28;20326;-49
2021/07/23 08:47:53;;;;;;;3.58;1.70;;;25.20;47.30;;;;;;5014082;28;20045;-47
2021/07/23 08:50:19;;;;;;;4.10;2.00;;;25.30;47.00;;;;;;5015160;28;20033;-48
2021/07/23 08:52:50;;;;;;;2.65;1.63;;;25.30;46.50;;;;;;5015021;28;20034;-48
2021/07/23 08:55:18;;;;;;;5.88;2.25;;;25.40;46.50;;;;;;5014917;28;20034;-49
2021/07/23 08:57:44;;;;;;;5.80;2.50;;;25.40;45.60;;;;;;5014536;28;20326;-49
2021/07/23 09:00:12;;;;;;;5.93;2.33;;;25.40;45.70;;;;;;5015166;28;20034;-48
2021/07/23 09:02:53;;;;;;;6.75;1.60;;;25.50;46.40;;;;;;5013807;28;20038;-47
2021/07/23 09:05:45;;;;;;;6.75;2.30;;;25.60;44.60;;;;;;5018725;28;20026;-48
2021/07/23 09:08:15;;;;;;;8.55;1.80;;;25.60;45.60;;;;;;5019277;28;20129;-46
2021/07/23 09:10:41;;;;;;;5.18;2.38;;;25.70;44.70;;;;;;5019034;28;20025;-48
2021/07/23 09:13:07;;;;;;;6.05;2.35;;;25.70;45.30;;;;;;5018993;28;20114;-48
2021/07/23 09:15:37;;;;;;;5.47;1.75;;;25.80;45.40;;;;;;5019160;28;20042;-46
2021/07/23 09:18:05;;;;;;;2.72;1.55;;;25.80;44.40;;;;;;5018714;28;20040;-48
2021/07/23 09:20:32;;;;;;;3.38;1.60;;;25.80;45.00;;;;;;5018783;28;20105;-47
2021/07/23 09:23:02;;;;;;;2.88;2.17;;;25.90;45.40;;;;;;5018665;28;20041;-46
2021/07/23 09:25:44;;;;;;;7.63;1.80;;;25.90;46.00;;;;;;5018373;28;20030;-51
2021/07/23 09:28:40;;;;;;;6.20;1.95;;;26.00;45.00;;;;;;5018638;28;20123;-49
2021/07/23 09:31:08;;;;;;;4.15;1.77;;;26.00;44.90;;;;;;5017354;28;20034;-50
2021/07/23 09:33:37;;;;;;;4.38;1.80;;;26.00;44.50;;;;;;5018999;28;20375;-45
2021/07/23 09:36:07;;;;;;;7.53;2.30;;;26.10;44.50;;;;;;5017800;28;20077;-48
2021/07/23 09:38:37;;;;;;;4.68;1.85;;;26.10;45.10;;;;;;5019055;28;20034;-49
2021/07/23 09:41:05;;;;;;;4.57;1.80;;;26.10;45.20;;;;;;5018079;28;20030;-45
2021/07/23 09:43:36;;;;;;;3.10;1.80;;;26.20;45.40;;;;;;5018900;28;20049;-47
2021/07/23 09:46:17;;;;;;;5.22;1.63;;;26.20;44.70;;;;;;5018361;28;20032;-48
2021/07/23 09:48:43;;;;;;;3.30;2.10;;;26.30;44.60;;;;;;5018620;28;20029;-47
2021/07/23 09:51:10;;;;;;;6.25;1.98;;;26.30;45.60;;;;;;5017682;28;20125;-46
2021/07/23 09:53:36;;;;;;;3.55;2.08;;;26.40;44.80;;;;;;5018794;28;20033;-50
2021/07/23 09:56:09;;;;;;;8.13;1.92;;;26.50;45.10;;;;;;5018354;28;20036;-46
2021/07/23 09:58:38;;;;;;;2.55;1.77;;;26.50;44.20;;;;;;5018570;28;20129;-48
2021/07/23 10:01:08;;;;;;;2.92;1.55;;;26.50;44.00;;;;;;5012014;28;20508;-47
2021/07/23 10:03:38;;;;;;;6.32;1.70;;;26.60;43.70;;;;;;5017501;28;20072;-47
2021/07/23 10:06:08;;;;;;;;;;;26.60;43.60;;;;;;5017797;28;20464;-47
2021/07/23 10:08:38;;;;;;;9.43;2.00;;;26.60;44.40;;;;;;5018156;28;19913;-44
2021/07/23 10:11:08;;;;;;;4.93;1.67;;;26.60;44.20;;;;;;5017214;28;20488;-46
2021/07/23 10:13:38;;;;;;;1.88;1.23;;;26.60;44.20;;;;;;5016802;28;20510;-49
2021/07/23 10:16:05;;;;;;;2.95;1.83;;;26.70;43.50;;;;;;5016692;28;20137;-45
2021/07/23 10:18:33;;;;;;;6.13;2.80;;;26.70;44.20;;;;;;5017869;28;20060;-48
2021/07/23 10:20:59;;;;;;;3.35;2.13;;;26.70;44.10;;;;;;5016978;28;20045;-48
2021/07/23 10:23:26;;;;;;;3.55;1.80;;;26.80;44.10;;;;;;5017416;28;20030;-47
2021/07/23 10:25:54;;;;;;;3.67;1.60;;;26.90;43.80;;;;;;5017170;28;20034;-47
2021/07/23 10:28:42;;;;;;;3.58;1.85;;;26.90;43.00;;;;;;5017457;28;20053;-48
2021/07/23 10:31:21;;;;;;;4.95;2.40;;;26.90;43.20;;;;;;5016646;28;20022;-45
2021/07/23 10:33:54;;;;;;;6.13;2.33;;;27.00;42.40;;;;;;5017520;28;20087;-43
2021/07/23 10:36:32;;;;;;;5.38;2.53;;;27.00;43.20;;;;;;5016378;28;20038;-49
2021/07/23 10:39:06;;;;;;;3.40;1.92;;;27.10;43.00;;;;;;5017565;28;20361;-49
2021/07/23 10:41:32;;;;;;;5.70;1.50;;;27.10;43.80;;;;;;5016395;28;20026;-48
2021/07/23 10:43:58;;;;;;;5.50;1.85;;;27.20;43.40;;;;;;5017261;28;20084;-46
2021/07/23 10:46:42;;;;;;;5.60;1.98;;;27.20;43.00;;;;;;5016449;28;20025;-49
2021/07/23 10:49:27;;;;;;;6.03;1.95;;;27.30;43.90;;;;;;5017474;28;20049;-47
2021/07/23 10:51:59;;;;;;;3.08;1.35;;;27.30;43.40;;;;;;5016664;28;20030;-47
2021/07/23 10:54:29;;;;;;;3.15;1.70;;;27.40;42.20;;;;;;5017162;28;20049;-50
2021/07/23 10:57:00;;;;;;;6.43;1.58;;;27.40;42.00;;;;;;5016627;28;20112;-46
2021/07/23 10:59:41;;;;;;;3.95;1.80;;;27.50;42.40;;;;;;5017143;28;20053;-49
2021/07/23 11:02:16;;;;;;;3.85;1.67;;;27.50;42.10;;;;;;5016078;28;20022;-51
2021/07/23 11:04:45;;;;;;;5.93;1.88;;;27.60;41.70;;;;;;5016420;28;20030;-50
2021/07/23 11:07:12;;;;;;;3.10;1.55;;;27.60;42.10;;;;;;5016938;28;20030;-51
2021/07/23 11:09:39;;;;;;;6.78;2.00;;;27.70;41.70;;;;;;5017283;28;20026;-50
2021/07/23 11:12:25;;;;;;;4.65;1.65;;;27.70;40.90;;;;;;5015755;28;20033;-48
2021/07/23 11:14:52;;;;;;;3.85;1.77;;;27.80;40.60;;;;;;5016992;28;20299;-49
2021/07/23 11:17:18;;;;;;;4.90;1.65;;;27.80;40.90;;;;;;5016503;28;20046;-49
2021/07/23 11:19:48;;;;;;;5.63;1.95;;;27.90;41.40;;;;;;5016733;28;20088;-47
2021/07/23 11:22:23;;;;;;;2.25;1.60;;;28.00;41.50;;;;;;5015396;28;20440;-45
2021/07/23 11:24:49;;;;;;;4.43;1.90;;;28.10;42.00;;;;;;5016546;28;20362;-48
2021/07/23 11:27:25;;;;;;;2.70;1.60;;;28.20;40.50;;;;;;5014755;28;20021;-50
2021/07/23 11:29:52;;;;;;;3.50;1.48;;;28.20;41.30;;;;;;5016454;28;20056;-47
2021/07/23 11:32:18;;;;;;;3.03;1.52;;;28.30;41.10;;;;;;5016732;28;20145;-50
2021/07/23 11:34:44;;;;;;;5.47;1.77;;;28.30;41.10;;;;;;5016424;28;20125;-48
2021/07/23 11:37:25;;;;;;;3.28;1.98;;;28.30;41.50;;;;;;5016501;28;20030;-48
2021/07/23 11:39:56;;;;;;;6.65;1.98;;;28.40;42.00;;;;;;5016210;28;20048;-49
2021/07/23 11:42:23;;;;;;;2.72;1.83;;;28.50;41.60;;;;;;5011504;28;20755;-46
2021/07/23 11:44:53;;;;;;;8.98;2.05;;;28.60;41.30;;;;;;5016251;28;20101;-49
2021/07/23 11:47:31;;;;;;;11.88;3.53;;;28.70;41.30;;;;;;5012590;28;20037;-47
2021/07/23 11:49:59;;;;;;;3.78;1.90;;;28.80;40.50;;;;;;5016048;28;20029;-47
2021/07/23 11:52:25;;;;;;;3.42;1.75;;;28.90;40.10;;;;;;5015320;28;20038;-50
2021/07/23 11:55:10;;;;;;;5.18;1.92;;;29.00;39.50;;;;;;5015883;28;20037;-47
2021/07/23 11:57:39;;;;;;;2.10;1.58;;;29.10;38.70;;;;;;5015180;28;20077;-46
2021/07/23 12:00:23;;;;;;;4.80;2.23;;;29.20;39.90;;;;;;5016230;28;20026;-45
2021/07/23 12:02:54;;;;;;;6.18;1.90;;;29.40;39.80;;;;;;5013979;28;20313;-45
2021/07/23 12:05:20;;;;;;;4.03;1.48;;;29.50;39.60;;;;;;5015443;28;20332;-46
2021/07/23 12:07:59;;;;;;;4.35;1.88;;;29.60;39.70;;;;;;5015353;28;20365;-45
2021/07/23 12:10:25;;;;;;;2.70;1.90;;;29.70;40.20;;;;;;5015260;28;20022;-46
2021/07/23 12:12:51;;;;;;;2.63;1.60;;;29.90;40.40;;;;;;5015292;28;20267;-45
2021/07/23 12:15:18;;;;;;;8.85;1.80;;;30.00;40.20;;;;;;5014969;28;20040;-50
2021/07/23 12:17:45;;;;;;;3.30;1.52;;;30.10;39.80;;;;;;5015301;28;20073;-46
2021/07/23 12:20:15;;;;;;;5.05;1.58;;;30.30;39.60;;;;;;5015868;28;20034;-46
2021/07/23 12:22:41;;;;;;;2.35;1.58;;;30.50;38.50;;;;;;5014423;28;20053;-49
2021/07/23 12:25:21;;;;;;;2.67;1.65;;;30.70;39.10;;;;;;5015199;28;20022;-46
2021/07/23 12:28:03;;;;;;;;;;;30.80;38.90;;;;;;5015742;28;20034;-45
2021/07/23 12:30:36;;;;;;;3.20;1.92;;;31.00;39.00;;;;;;5015381;28;19952;-47
2021/07/23 12:33:27;;;;;;;3.42;2.00;;;31.10;38.50;;;;;;5015243;28;20044;-49
2021/07/23 12:35:57;;;;;;;3.40;1.50;;;31.30;37.30;;;;;;5014969;28;20504;-46
2021/07/23 12:38:25;;;;;;;6.63;2.00;;;31.50;38.20;;;;;;5016189;28;20338;-49
2021/07/23 12:40:57;;;;;;;2.83;1.38;;;31.70;36.80;;;;;;5019340;28;20044;-50
2021/07/23 12:43:23;;;;;;;2.90;1.70;;;31.80;35.90;;;;;;5019596;28;20045;-47
2021/07/23 12:45:49;;;;;;;3.15;1.67;;;31.90;36.80;;;;;;5019096;28;20022;-46
2021/07/23 12:48:17;;;;;;;4.03;1.50;;;32.10;36.70;;;;;;5019511;28;20109;-50